Time,TemperatureF,DewpointF,PressureIn,WindDirection,WindDirectionDegrees,WindSpeedMPH,WindSpeedGustMPH,Humidity,HourlyPrecipIn,Conditions,Clouds,dailyrainin,SoftwareType,DateUTC
2013-02-28 00:00:00,7.9,3.8,29.38,North,0,0.0,0.0,83,0.00,,,0.00,WUHU216HW,2013-02-28 09:00:00,
2013-02-28 00:05:00,7.9,4.1,29.38,North,0,0.0,0.0,84,0.00,,,0.00,WUHU216HW,2013-02-28 09:05:00,
2013-02-28 00:10:00,8.1,4.2,29.38,North,0,0.0,0.0,84,0.00,,,0.00,WUHU216HW,2013-02-28 09:10:00,
2013-02-28 00:15:00,8.1,4.0,29.39,North,0,0.0,0.0,83,0.00,,,0.00,WUHU216HW,2013-02-28 09:15:00,
2013-02-28 00:20:00,7.6,3.4,29.39,North,0,0.0,0.0,83,0.00,,,0.00,WUHU216HW,2013-02-28 09:20:00,
2013-02-28 00:25:00,7.4,3.2,29.39,North,0,0.0,0.0,83,0.00,,,0.00,WUHU216HW,2013-02-28 09:25:00,
2013-02-28 00:30:00,7.4,3.2,29.39,North,0,0.0,0.0,83,0.00,,,0.00,WUHU216HW,2013-02-28 09:30:00,
2013-02-28 00:35:00,6.8,2.7,29.39,North,0,0.0,0.0,83,0.00,,,0.00,WUHU216HW,2013-02-28 09:35:00,
2013-02-28 00:40:00,6.5,2.6,29.39,North,0,0.0,0.0,84,0.00,,,0.00,WUHU216HW,2013-02-28 09:40:00,
2013-02-28 00:45:00,6.5,2.3,29.39,North,0,0.0,0.0,83,0.00,,,0.00,WUHU216HW,2013-02-28 09:45:00,
2013-02-28 00:50:00,6.5,2.6,29.39,North,0,0.0,0.0,84,0.00,,,0.00,WUHU216HW,2013-02-28 09:50:00,
2013-02-28 00:55:00,6.1,2.3,29.39,North,0,0.0,0.0,84,0.00,,,0.00,WUHU216HW,2013-02-28 09:55:00,
2013-02-28 01:00:00,6.1,2.5,29.39,North,0,0.0,0.0,85,0.00,,,0.00,WUHU216HW,2013-02-28 10:00:00,
2013-02-28 01:05:00,6.1,2.5,29.40,North,0,0.3,0.4,85,0.00,,,0.00,WUHU216HW,2013-02-28 10:05:00,
2013-02-28 01:10:00,5.9,2.1,29.40,North,0,0.0,0.4,84,0.00,,,0.00,WUHU216HW,2013-02-28 10:10:00,
2013-02-28 01:15:00,5.6,1.7,29.40,North,0,0.0,0.0,84,0.00,,,0.00,WUHU216HW,2013-02-28 10:15:00,
2013-02-28 01:20:00,5.4,1.8,29.40,North,0,0.0,0.0,85,0.00,,,0.00,WUHU216HW,2013-02-28 10:20:00,
2013-02-28 01:25:00,4.7,0.5,29.40,North,0,0.2,0.7,83,0.00,,,0.00,WUHU216HW,2013-02-28 10:25:00,
2013-02-28 01:30:00,4.3,0.2,29.40,North,0,0.2,0.7,83,0.00,,,0.00,WUHU216HW,2013-02-28 10:30:00,
2013-02-28 01:35:00,4.3,0.5,29.40,North,0,0.0,0.4,84,0.00,,,0.00,WUHU216HW,2013-02-28 10:35:00,
2013-02-28 01:40:00,4.1,0.3,29.40,North,0,0.0,0.0,84,0.00,,,0.00,WUHU216HW,2013-02-28 10:40:00,
2013-02-28 01:45:00,4.1,0.3,29.40,North,0,0.0,0.0,84,0.00,,,0.00,WUHU216HW,2013-02-28 10:45:00,
2013-02-28 01:50:00,4.1,0.3,29.40,North,0,0.0,0.0,84,0.00,,,0.00,WUHU216HW,2013-02-28 10:50:00,
2013-02-28 01:55:00,4.1,0.3,29.40,North,0,0.2,0.2,84,0.00,,,0.00,WUHU216HW,2013-02-28 10:55:00,
2013-02-28 02:00:00,4.0,0.1,29.41,North,0,0.0,0.2,84,0.00,,,0.00,WUHU216HW,2013-02-28 11:00:00,
2013-02-28 02:05:00,3.6,-0.3,29.41,North,0,0.0,0.0,84,0.00,,,0.00,WUHU216HW,2013-02-28 11:05:00,
2013-02-28 02:10:00,3.6,0.0,29.41,North,0,0.2,0.2,85,0.00,,,0.00,WUHU216HW,2013-02-28 11:10:00,
2013-02-28 02:15:00,3.6,0.0,29.41,North,0,0.0,0.2,85,0.00,,,0.00,WUHU216HW,2013-02-28 11:15:00,
2013-02-28 02:20:00,3.8,0.2,29.41,North,0,0.0,0.2,85,0.00,,,0.00,WUHU216HW,2013-02-28 11:20:00,
2013-02-28 02:25:00,3.6,-0.3,29.41,North,0,0.0,0.2,84,0.00,,,0.00,WUHU216HW,2013-02-28 11:25:00,
2013-02-28 02:30:00,3.6,0.0,29.41,North,0,0.0,0.0,85,0.00,,,0.00,WUHU216HW,2013-02-28 11:30:00,
2013-02-28 02:35:00,3.2,-0.6,29.41,North,0,0.0,0.4,84,0.00,,,0.00,WUHU216HW,2013-02-28 11:35:00,
2013-02-28 02:40:00,3.1,-0.8,29.41,North,0,0.0,0.4,84,0.00,,,0.00,WUHU216HW,2013-02-28 11:40:00,
2013-02-28 02:45:00,2.9,-1.0,29.41,North,0,0.0,0.0,84,0.00,,,0.00,WUHU216HW,2013-02-28 11:45:00,
2013-02-28 02:50:00,2.5,-1.3,29.41,North,0,0.2,0.4,84,0.00,,,0.00,WUHU216HW,2013-02-28 11:50:00,
2013-02-28 02:55:00,2.7,-0.9,29.41,North,0,0.0,0.4,85,0.00,,,0.00,WUHU216HW,2013-02-28 11:55:00,
2013-02-28 03:00:00,2.5,-1.3,29.41,North,0,0.0,0.0,84,0.00,,,0.00,WUHU216HW,2013-02-28 12:00:00,
2013-02-28 03:05:00,2.3,-1.5,29.41,North,0,0.0,0.0,84,0.00,,,0.00,WUHU216HW,2013-02-28 12:05:00,
2013-02-28 03:10:00,2.5,-1.3,29.41,North,0,0.0,0.0,84,0.00,,,0.00,WUHU216HW,2013-02-28 12:10:00,
2013-02-28 03:15:00,2.5,-1.3,29.41,North,0,0.0,0.0,84,0.00,,,0.00,WUHU216HW,2013-02-28 12:15:00,
2013-02-28 03:20:00,2.5,-1.3,29.41,North,0,0.0,0.0,84,0.00,,,0.00,WUHU216HW,2013-02-28 12:20:00,
2013-02-28 03:25:00,2.2,-1.7,29.41,North,0,0.0,0.0,84,0.00,,,0.00,WUHU216HW,2013-02-28 12:25:00,
2013-02-28 03:30:00,1.8,-2.1,29.41,North,0,0.2,0.2,84,0.00,,,0.00,WUHU216HW,2013-02-28 12:30:00,
2013-02-28 03:35:00,1.8,-2.1,29.41,North,0,0.0,0.2,84,0.00,,,0.00,WUHU216HW,2013-02-28 12:35:00,
2013-02-28 03:40:00,1.8,-2.1,29.41,North,0,0.0,0.0,84,0.00,,,0.00,WUHU216HW,2013-02-28 12:40:00,
2013-02-28 03:45:00,1.4,-2.7,29.41,North,0,0.5,0.7,83,0.00,,,0.00,WUHU216HW,2013-02-28 12:45:00,
2013-02-28 03:50:00,1.3,-2.6,29.41,North,0,0.0,0.7,84,0.00,,,0.00,WUHU216HW,2013-02-28 12:50:00,
2013-02-28 03:55:00,1.6,-1.7,29.41,North,0,0.0,0.4,86,0.00,,,0.00,WUHU216HW,2013-02-28 12:55:00,
2013-02-28 04:00:00,1.1,-3.2,29.41,North,0,0.4,0.7,82,0.00,,,0.00,WUHU216HW,2013-02-28 13:00:00,
2013-02-28 04:05:00,1.1,-3.0,29.41,North,0,0.0,0.7,83,0.00,,,0.00,WUHU216HW,2013-02-28 13:05:00,
2013-02-28 04:10:00,1.1,-3.0,29.41,North,0,0.0,0.0,83,0.00,,,0.00,WUHU216HW,2013-02-28 13:10:00,
2013-02-28 04:15:00,0.9,-3.1,29.41,North,0,0.0,0.4,83,0.00,,,0.00,WUHU216HW,2013-02-28 13:15:00,
2013-02-28 04:20:00,1.1,-2.8,29.41,North,0,0.0,0.4,84,0.00,,,0.00,WUHU216HW,2013-02-28 13:20:00,
2013-02-28 04:25:00,0.9,-2.9,29.41,North,0,0.0,0.0,84,0.00,,,0.00,WUHU216HW,2013-02-28 13:25:00,
2013-02-28 04:30:00,0.5,-3.8,29.41,North,0,0.5,0.7,82,0.00,,,0.00,WUHU216HW,2013-02-28 13:30:00,
2013-02-28 04:35:00,0.0,-4.2,29.41,North,0,0.0,0.7,82,0.00,,,0.00,WUHU216HW,2013-02-28 13:35:00,
2013-02-28 04:40:00,0.0,-3.9,29.40,North,0,0.0,0.0,83,0.00,,,0.00,WUHU216HW,2013-02-28 13:40:00,
2013-02-28 04:45:00,-0.4,-4.6,29.40,North,0,0.2,0.2,82,0.00,,,0.00,WUHU216HW,2013-02-28 13:45:00,
2013-02-28 04:50:00,-0.5,-4.8,29.41,North,0,0.0,0.4,82,0.00,,,0.00,WUHU216HW,2013-02-28 13:50:00,
2013-02-28 04:55:00,-0.4,-4.3,29.41,North,0,0.0,0.4,83,0.00,,,0.00,WUHU216HW,2013-02-28 13:55:00,
2013-02-28 05:00:00,-0.4,-4.3,29.41,North,0,0.3,0.4,83,0.00,,,0.00,WUHU216HW,2013-02-28 14:00:00,
2013-02-28 05:05:00,-0.2,-4.1,29.41,North,0,0.0,0.4,83,0.00,,,0.00,WUHU216HW,2013-02-28 14:05:00,
2013-02-28 05:10:00,0.0,-3.9,29.41,North,0,0.0,0.2,83,0.00,,,0.00,WUHU216HW,2013-02-28 14:10:00,
2013-02-28 05:15:00,-0.4,-4.6,29.41,North,0,0.2,0.4,82,0.00,,,0.00,WUHU216HW,2013-02-28 14:15:00,
2013-02-28 05:20:00,-0.4,-4.3,29.41,North,0,0.0,0.4,83,0.00,,,0.00,WUHU216HW,2013-02-28 14:20:00,
2013-02-28 05:25:00,-0.2,-4.1,29.41,North,0,0.0,0.0,83,0.00,,,0.00,WUHU216HW,2013-02-28 14:25:00,
2013-02-28 05:30:00,0.0,-3.9,29.41,North,0,0.0,0.0,83,0.00,,,0.00,WUHU216HW,2013-02-28 14:30:00,
2013-02-28 05:35:00,0.4,-3.4,29.41,North,0,0.0,0.0,84,0.00,,,0.00,WUHU216HW,2013-02-28 14:35:00,
2013-02-28 05:40:00,0.0,-3.9,29.41,North,0,0.2,0.4,83,0.00,,,0.00,WUHU216HW,2013-02-28 14:40:00,
2013-02-28 05:45:00,0.4,-3.4,29.41,North,0,0.0,0.4,84,0.00,,,0.00,WUHU216HW,2013-02-28 14:45:00,
2013-02-28 05:50:00,0.4,-3.4,29.41,North,0,0.0,0.0,84,0.00,,,0.00,WUHU216HW,2013-02-28 14:50:00,
2013-02-28 05:55:00,0.0,-3.8,29.41,North,0,0.0,0.2,84,0.00,,,0.00,WUHU216HW,2013-02-28 14:55:00,
2013-02-28 06:00:00,0.2,-3.6,29.41,North,0,0.0,0.2,84,0.00,,,0.00,WUHU216HW,2013-02-28 15:00:00,
2013-02-28 06:05:00,0.0,-3.8,29.41,North,0,0.0,0.0,84,0.00,,,0.00,WUHU216HW,2013-02-28 15:05:00,
2013-02-28 06:10:00,0.0,-3.8,29.41,North,0,0.2,0.2,84,0.00,,,0.00,WUHU216HW,2013-02-28 15:10:00,
2013-02-28 06:15:00,-1.1,-5.3,29.41,North,0,0.5,0.7,82,0.00,,,0.00,WUHU216HW,2013-02-28 15:15:00,
2013-02-28 06:20:00,-0.9,-5.1,29.41,North,0,0.0,0.7,82,0.00,,,0.00,WUHU216HW,2013-02-28 15:20:00,
2013-02-28 06:25:00,-0.5,-4.5,29.41,North,0,0.0,0.4,83,0.00,,,0.00,WUHU216HW,2013-02-28 15:25:00,
2013-02-28 06:30:00,-0.4,-4.3,29.41,North,0,0.4,0.4,83,0.00,,,0.00,WUHU216HW,2013-02-28 15:30:00,
2013-02-28 06:35:00,-0.7,-4.7,29.41,North,0,0.4,0.9,83,0.00,,,0.00,WUHU216HW,2013-02-28 15:35:00,
2013-02-28 06:40:00,-0.5,-4.3,29.41,North,0,0.2,0.9,84,0.00,,,0.00,WUHU216HW,2013-02-28 15:40:00,
2013-02-28 06:45:00,-0.4,-4.1,29.41,North,0,0.0,0.2,84,0.00,,,0.00,WUHU216HW,2013-02-28 15:45:00,
2013-02-28 06:50:00,-0.2,-4.0,29.41,North,0,0.0,0.0,84,0.00,,,0.00,WUHU216HW,2013-02-28 15:50:00,
2013-02-28 06:55:00,0.0,-3.8,29.41,North,0,0.0,0.0,84,0.00,,,0.00,WUHU216HW,2013-02-28 15:55:00,
2013-02-28 07:00:00,-0.4,-4.3,29.41,North,0,0.0,0.0,83,0.00,,,0.00,WUHU216HW,2013-02-28 16:00:00,
2013-02-28 07:05:00,-0.9,-5.1,29.41,North,0,0.0,0.4,82,0.00,,,0.00,WUHU216HW,2013-02-28 16:05:00,
2013-02-28 07:10:00,-1.1,-5.0,29.41,North,0,0.0,0.4,83,0.00,,,0.00,WUHU216HW,2013-02-28 16:10:00,
2013-02-28 07:15:00,-1.4,-5.7,29.41,North,0,0.4,0.4,82,0.00,,,0.00,WUHU216HW,2013-02-28 16:15:00,
2013-02-28 07:20:00,-1.6,-5.6,29.42,North,0,0.0,0.4,83,0.00,,,0.00,WUHU216HW,2013-02-28 16:20:00,
2013-02-28 07:25:00,-1.4,-5.4,29.42,North,0,0.2,0.4,83,0.00,,,0.00,WUHU216HW,2013-02-28 16:25:00,
2013-02-28 07:30:00,-1.3,-5.2,29.41,North,0,0.0,0.2,83,0.00,,,0.00,WUHU216HW,2013-02-28 16:30:00,
2013-02-28 07:35:00,-1.1,-4.9,29.42,North,0,0.0,0.2,84,0.00,,,0.00,WUHU216HW,2013-02-28 16:35:00,
2013-02-28 07:40:00,-0.9,-4.8,29.42,North,0,0.0,0.0,83,0.00,,,0.00,WUHU216HW,2013-02-28 16:40:00,
2013-02-28 07:45:00,-1.1,-5.0,29.42,North,0,0.0,0.0,83,0.00,,,0.00,WUHU216HW,2013-02-28 16:45:00,
2013-02-28 07:50:00,-1.3,-5.2,29.42,North,0,0.0,0.0,83,0.00,,,0.00,WUHU216HW,2013-02-28 16:50:00,
2013-02-28 07:55:00,-1.6,-5.6,29.42,North,0,0.0,0.0,83,0.00,,,0.00,WUHU216HW,2013-02-28 16:55:00,
2013-02-28 08:00:00,-1.6,-5.6,29.42,North,0,0.0,0.0,83,0.00,,,0.00,WUHU216HW,2013-02-28 17:00:00,
2013-02-28 08:05:00,-1.4,-5.4,29.42,North,0,0.0,0.0,83,0.00,,,0.00,WUHU216HW,2013-02-28 17:05:00,
2013-02-28 08:10:00,-1.6,-5.6,29.42,North,0,0.0,0.0,83,0.00,,,0.00,WUHU216HW,2013-02-28 17:10:00,
2013-02-28 08:15:00,-1.6,-5.6,29.42,North,0,0.0,0.2,83,0.00,,,0.00,WUHU216HW,2013-02-28 17:15:00,
2013-02-28 08:20:00,-1.6,-5.6,29.42,North,0,0.0,0.2,83,0.00,,,0.00,WUHU216HW,2013-02-28 17:20:00,
2013-02-28 08:25:00,-1.8,-6.0,29.42,North,0,0.0,0.0,82,0.00,,,0.00,WUHU216HW,2013-02-28 17:25:00,
2013-02-28 08:30:00,-1.8,-5.7,29.42,North,0,0.2,0.2,83,0.00,,,0.00,WUHU216HW,2013-02-28 17:30:00,
2013-02-28 08:35:00,-2.0,-5.9,29.42,North,0,0.0,0.2,83,0.00,,,0.00,WUHU216HW,2013-02-28 17:35:00,
2013-02-28 08:40:00,-1.8,-6.0,29.42,North,0,0.0,0.2,82,0.00,,,0.00,WUHU216HW,2013-02-28 17:40:00,
2013-02-28 08:45:00,-2.0,-5.9,29.42,North,0,0.0,0.2,83,0.00,,,0.00,WUHU216HW,2013-02-28 17:45:00,
2013-02-28 08:50:00,-1.8,-6.0,29.42,North,0,0.2,0.4,82,0.00,,,0.00,WUHU216HW,2013-02-28 17:50:00,
2013-02-28 08:55:00,-1.6,-5.6,29.42,North,0,0.0,0.4,83,0.00,,,0.00,WUHU216HW,2013-02-28 17:55:00,
2013-02-28 09:00:00,-1.1,-5.0,29.41,North,0,0.0,0.0,83,0.00,,,0.00,WUHU216HW,2013-02-28 18:00:00,
2013-02-28 09:05:00,-0.7,-4.7,29.41,North,0,0.0,0.0,83,0.00,,,0.00,WUHU216HW,2013-02-28 18:05:00,
2013-02-28 09:10:00,-0.4,-4.3,29.41,North,0,0.7,0.9,83,0.00,,,0.00,WUHU216HW,2013-02-28 18:10:00,
2013-02-28 09:15:00,-0.4,-4.3,29.41,North,0,0.0,0.9,83,0.00,,,0.00,WUHU216HW,2013-02-28 18:15:00,
2013-02-28 09:20:00,0.7,-3.0,29.41,North,0,0.2,0.7,84,0.00,,,0.00,WUHU216HW,2013-02-28 18:20:00,
2013-02-28 09:25:00,1.8,-1.8,29.41,North,0,0.0,0.2,85,0.00,,,0.00,WUHU216HW,2013-02-28 18:25:00,
2013-02-28 09:30:00,2.9,-0.7,29.41,North,0,0.0,0.2,85,0.00,,,0.00,WUHU216HW,2013-02-28 18:30:00,
2013-02-28 09:35:00,3.6,0.0,29.41,North,0,0.0,0.0,85,0.00,,,0.00,WUHU216HW,2013-02-28 18:35:00,
2013-02-28 09:40:00,4.0,0.4,29.41,North,0,0.0,0.0,85,0.00,,,0.00,WUHU216HW,2013-02-28 18:40:00,
2013-02-28 09:45:00,4.7,1.4,29.41,North,0,0.0,0.0,86,0.00,,,0.00,WUHU216HW,2013-02-28 18:45:00,
2013-02-28 09:50:00,5.4,2.1,29.41,North,0,0.0,0.0,86,0.00,,,0.00,WUHU216HW,2013-02-28 18:50:00,
2013-02-28 09:55:00,5.9,2.6,29.42,North,0,0.0,0.0,86,0.00,,,0.00,WUHU216HW,2013-02-28 18:55:00,
2013-02-28 10:00:00,6.3,3.0,29.41,North,0,0.0,0.0,86,0.00,,,0.00,WUHU216HW,2013-02-28 19:00:00,
2013-02-28 10:05:00,6.8,3.5,29.41,North,0,0.2,0.2,86,0.00,,,0.00,WUHU216HW,2013-02-28 19:05:00,
2013-02-28 10:10:00,6.8,3.2,29.41,North,0,0.0,0.2,85,0.00,,,0.00,WUHU216HW,2013-02-28 19:10:00,
2013-02-28 10:15:00,7.0,3.4,29.41,North,0,0.0,0.2,85,0.00,,,0.00,WUHU216HW,2013-02-28 19:15:00,
2013-02-28 10:20:00,7.9,4.3,29.41,North,0,0.0,0.0,85,0.00,,,0.00,WUHU216HW,2013-02-28 19:20:00,
2013-02-28 10:25:00,8.3,4.7,29.41,North,0,0.0,0.0,85,0.00,,,0.00,WUHU216HW,2013-02-28 19:25:00,
2013-02-28 10:30:00,9.0,5.7,29.42,North,0,0.0,0.0,86,0.00,,,0.00,WUHU216HW,2013-02-28 19:30:00,
2013-02-28 10:35:00,9.5,6.1,29.41,North,0,0.0,0.0,86,0.00,,,0.00,WUHU216HW,2013-02-28 19:35:00,
2013-02-28 10:40:00,10.1,6.4,29.41,North,0,0.0,0.0,85,0.00,,,0.00,WUHU216HW,2013-02-28 19:40:00,
2013-02-28 10:45:00,10.3,6.3,29.41,North,0,0.0,0.2,84,0.00,,,0.00,WUHU216HW,2013-02-28 19:45:00,
2013-02-28 10:50:00,11.0,7.0,29.41,North,0,0.0,0.2,84,0.00,,,0.00,WUHU216HW,2013-02-28 19:50:00,
2013-02-28 10:55:00,11.5,7.6,29.41,North,0,0.0,0.0,84,0.00,,,0.00,WUHU216HW,2013-02-28 19:55:00,
2013-02-28 11:00:00,12.2,8.3,29.41,North,0,0.0,0.0,84,0.00,,,0.00,WUHU216HW,2013-02-28 20:00:00,
2013-02-28 11:05:00,12.8,8.6,29.41,North,0,0.0,0.0,83,0.00,,,0.00,WUHU216HW,2013-02-28 20:05:00,
2013-02-28 11:10:00,13.3,9.4,29.41,North,0,0.0,0.0,84,0.00,,,0.00,WUHU216HW,2013-02-28 20:10:00,
2013-02-28 11:15:00,13.9,9.6,29.41,North,0,0.0,0.0,83,0.00,,,0.00,WUHU216HW,2013-02-28 20:15:00,
2013-02-28 11:20:00,14.8,10.5,29.41,North,0,0.0,0.0,83,0.00,,,0.00,WUHU216HW,2013-02-28 20:20:00,
2013-02-28 11:25:00,15.7,11.3,29.41,North,0,0.0,0.0,83,0.00,,,0.00,WUHU216HW,2013-02-28 20:25:00,
2013-02-28 11:30:00,16.7,11.9,29.41,North,0,0.7,0.7,81,0.00,,,0.00,WUHU216HW,2013-02-28 20:30:00,
2013-02-28 11:35:00,17.6,11.9,29.41,North,0,0.8,1.1,78,0.00,,,0.00,WUHU216HW,2013-02-28 20:35:00,
2013-02-28 11:40:00,18.2,12.3,29.41,North,0,0.0,1.1,78,0.00,,,0.00,WUHU216HW,2013-02-28 20:40:00,
2013-02-28 11:45:00,18.9,13.1,29.41,North,0,0.0,0.0,78,0.00,,,0.00,WUHU216HW,2013-02-28 20:45:00,
2013-02-28 11:50:00,19.8,13.3,29.41,North,0,0.0,0.2,76,0.00,,,0.00,WUHU216HW,2013-02-28 20:50:00,
2013-02-28 11:55:00,20.0,13.0,29.41,North,0,0.0,0.7,74,0.00,,,0.00,WUHU216HW,2013-02-28 20:55:00,
2013-02-28 12:00:00,20.5,13.8,29.40,North,0,0.0,0.7,75,0.00,,,0.00,WUHU216HW,2013-02-28 21:00:00,
2013-02-28 12:05:00,20.9,12.6,29.40,North,0,0.6,1.3,70,0.00,,,0.00,WUHU216HW,2013-02-28 21:05:00,
2013-02-28 12:10:00,21.6,13.3,29.40,North,0,0.5,1.3,70,0.00,,,0.00,WUHU216HW,2013-02-28 21:10:00,
2013-02-28 12:15:00,22.0,13.7,29.40,North,0,0.2,0.9,70,0.00,,,0.00,WUHU216HW,2013-02-28 21:15:00,
2013-02-28 12:20:00,22.3,14.0,29.40,North,0,0.0,0.7,70,0.00,,,0.00,WUHU216HW,2013-02-28 21:20:00,
2013-02-28 12:25:00,22.9,14.2,29.40,North,0,0.2,0.7,69,0.00,,,0.00,WUHU216HW,2013-02-28 21:25:00,
2013-02-28 12:30:00,24.5,15.8,29.40,North,0,0.2,0.7,69,0.00,,,0.00,WUHU216HW,2013-02-28 21:30:00,
2013-02-28 12:35:00,25.6,16.4,29.40,North,0,0.2,0.9,68,0.00,,,0.00,WUHU216HW,2013-02-28 21:35:00,
2013-02-28 12:40:00,25.9,16.4,29.40,North,0,0.0,0.9,67,0.00,,,0.00,WUHU216HW,2013-02-28 21:40:00,
2013-02-28 12:45:00,25.7,14.9,29.40,North,0,0.4,0.7,63,0.00,,,0.00,WUHU216HW,2013-02-28 21:45:00,
2013-02-28 12:50:00,25.6,13.6,29.40,North,0,0.4,0.7,60,0.00,,,0.00,WUHU216HW,2013-02-28 21:50:00,
2013-02-28 12:55:00,25.6,14.0,29.40,North,0,0.5,1.1,61,0.00,,,0.00,WUHU216HW,2013-02-28 21:55:00,
2013-02-28 13:00:00,25.9,14.3,29.40,North,0,0.4,1.1,61,0.00,,,0.00,WUHU216HW,2013-02-28 22:00:00,
2013-02-28 13:05:00,26.3,14.9,29.39,North,0,0.2,0.9,62,0.00,,,0.00,WUHU216HW,2013-02-28 22:05:00,
2013-02-28 13:10:00,28.1,16.4,29.39,North,0,0.0,0.9,61,0.00,,,0.00,WUHU216HW,2013-02-28 22:10:00,
2013-02-28 13:15:00,29.5,17.7,29.39,North,0,0.3,0.4,61,0.00,,,0.00,WUHU216HW,2013-02-28 22:15:00,
2013-02-28 13:20:00,29.2,17.0,29.39,North,0,0.0,0.4,60,0.00,,,0.00,WUHU216HW,2013-02-28 22:20:00,
2013-02-28 13:25:00,28.6,16.9,29.39,North,0,0.0,0.4,61,0.00,,,0.00,WUHU216HW,2013-02-28 22:25:00,
2013-02-28 13:30:00,28.1,16.7,29.39,North,0,0.0,0.0,62,0.00,,,0.00,WUHU216HW,2013-02-28 22:30:00,
2013-02-28 13:35:00,28.3,16.6,29.39,North,0,0.0,0.4,61,0.00,,,0.00,WUHU216HW,2013-02-28 22:35:00,
2013-02-28 13:40:00,28.3,16.9,29.38,North,0,0.0,0.4,62,0.00,,,0.00,WUHU216HW,2013-02-28 22:40:00,
2013-02-28 13:45:00,28.4,17.1,29.38,North,0,0.0,0.0,62,0.00,,,0.00,WUHU216HW,2013-02-28 22:45:00,
2013-02-28 13:50:00,28.6,17.3,29.38,North,0,0.0,0.0,62,0.00,,,0.00,WUHU216HW,2013-02-28 22:50:00,
2013-02-28 13:55:00,28.8,17.5,29.38,North,0,0.0,0.0,62,0.00,,,0.00,WUHU216HW,2013-02-28 22:55:00,
2013-02-28 14:00:00,28.4,17.1,29.38,North,0,0.0,0.0,62,0.00,,,0.00,WUHU216HW,2013-02-28 23:00:00,
2013-02-28 14:05:00,28.3,16.9,29.38,North,0,0.0,0.7,62,0.00,,,0.00,WUHU216HW,2013-02-28 23:05:00,
2013-02-28 14:10:00,28.1,16.7,29.38,North,0,0.0,0.7,62,0.00,,,0.00,WUHU216HW,2013-02-28 23:10:00,
2013-02-28 14:15:00,28.1,16.7,29.38,North,0,1.1,1.1,62,0.00,,,0.00,WUHU216HW,2013-02-28 23:15:00,
2013-02-28 14:20:00,28.3,16.6,29.38,North,0,0.0,1.1,61,0.00,,,0.00,WUHU216HW,2013-02-28 23:20:00,
2013-02-28 14:25:00,28.6,16.6,29.38,North,0,0.0,1.1,60,0.00,,,0.00,WUHU216HW,2013-02-28 23:25:00,
2013-02-28 14:30:00,29.2,15.8,29.38,North,0,0.0,0.0,57,0.00,,,0.00,WUHU216HW,2013-02-28 23:30:00,
2013-02-28 14:35:00,29.5,17.4,29.38,North,0,0.0,0.0,60,0.00,,,0.00,WUHU216HW,2013-02-28 23:35:00,
2013-02-28 14:40:00,29.5,17.4,29.37,North,0,0.0,0.0,60,0.00,,,0.00,WUHU216HW,2013-02-28 23:40:00,
2013-02-28 14:45:00,29.5,17.4,29.38,North,0,0.0,0.0,60,0.00,,,0.00,WUHU216HW,2013-02-28 23:45:00,
2013-02-28 14:50:00,29.5,17.7,29.38,North,0,0.0,0.0,61,0.00,,,0.00,WUHU216HW,2013-02-28 23:50:00,
2013-02-28 14:55:00,29.5,17.7,29.38,North,0,0.0,0.0,61,0.00,,,0.00,WUHU216HW,2013-02-28 23:55:00,
2013-02-28 15:00:00,29.5,17.7,29.38,North,0,0.0,0.0,61,0.00,,,0.00,WUHU216HW,2013-03-01 00:00:00,
2013-02-28 15:05:00,29.5,18.1,29.38,North,0,0.0,0.0,62,0.00,,,0.00,WUHU216HW,2013-03-01 00:05:00,
2013-02-28 15:10:00,29.7,18.3,29.38,North,0,0.0,0.0,62,0.00,,,0.00,WUHU216HW,2013-03-01 00:10:00,
2013-02-28 15:15:00,29.7,18.3,29.38,North,0,0.0,0.0,62,0.00,,,0.00,WUHU216HW,2013-03-01 00:15:00,
2013-02-28 15:20:00,29.9,18.4,29.38,North,0,0.0,0.0,62,0.00,,,0.00,WUHU216HW,2013-03-01 00:20:00,
2013-02-28 15:25:00,30.1,18.5,29.38,North,0,0.0,0.0,62,0.00,,,0.00,WUHU216HW,2013-03-01 00:25:00,
2013-02-28 15:30:00,30.4,18.9,29.37,North,0,0.0,0.0,62,0.00,,,0.00,WUHU216HW,2013-03-01 00:30:00,
2013-02-28 15:35:00,30.6,19.1,29.38,North,0,0.0,0.0,62,0.00,,,0.00,WUHU216HW,2013-03-01 00:35:00,
2013-02-28 15:40:00,30.6,19.1,29.37,North,0,0.0,0.0,62,0.00,,,0.00,WUHU216HW,2013-03-01 00:40:00,
2013-02-28 15:45:00,30.6,19.1,29.38,North,0,0.0,0.0,62,0.00,,,0.00,WUHU216HW,2013-03-01 00:45:00,
2013-02-28 15:50:00,30.2,19.4,29.38,North,0,0.0,0.0,64,0.00,,,0.00,WUHU216HW,2013-03-01 00:50:00,
2013-02-28 15:55:00,30.1,18.9,29.38,North,0,0.0,0.0,63,0.00,,,0.00,WUHU216HW,2013-03-01 00:55:00,
2013-02-28 16:00:00,30.1,18.9,29.38,North,0,0.0,0.0,63,0.00,,,0.00,WUHU216HW,2013-03-01 01:00:00,
2013-02-28 16:05:00,29.9,18.4,29.38,North,0,0.0,0.0,62,0.00,,,0.00,WUHU216HW,2013-03-01 01:05:00,
2013-02-28 16:10:00,29.7,18.3,29.38,North,0,0.0,0.0,62,0.00,,,0.00,WUHU216HW,2013-03-01 01:10:00,
2013-02-28 16:15:00,29.7,18.3,29.38,North,0,0.0,0.0,62,0.00,,,0.00,WUHU216HW,2013-03-01 01:15:00,
2013-02-28 16:20:00,29.5,18.5,29.38,North,0,0.0,0.0,63,0.00,,,0.00,WUHU216HW,2013-03-01 01:20:00,
2013-02-28 16:25:00,29.3,18.3,29.38,North,0,0.0,0.0,63,0.00,,,0.00,WUHU216HW,2013-03-01 01:25:00,
2013-02-28 16:30:00,29.2,17.7,29.38,North,0,0.0,0.0,62,0.00,,,0.00,WUHU216HW,2013-03-01 01:30:00,
2013-02-28 16:35:00,29.2,17.7,29.38,North,0,0.0,0.0,62,0.00,,,0.00,WUHU216HW,2013-03-01 01:35:00,
2013-02-28 16:40:00,28.8,17.5,29.38,North,0,0.0,0.0,62,0.00,,,0.00,WUHU216HW,2013-03-01 01:40:00,
2013-02-28 16:45:00,28.8,17.5,29.38,North,0,0.0,0.0,62,0.00,,,0.00,WUHU216HW,2013-03-01 01:45:00,
2013-02-28 16:50:00,28.4,17.1,29.38,North,0,0.0,0.0,62,0.00,,,0.00,WUHU216HW,2013-03-01 01:50:00,
2013-02-28 16:55:00,28.4,17.1,29.38,North,0,0.0,0.0,62,0.00,,,0.00,WUHU216HW,2013-03-01 01:55:00,
2013-02-28 17:00:00,28.3,16.9,29.38,North,0,0.0,0.0,62,0.00,,,0.00,WUHU216HW,2013-03-01 02:00:00,
2013-02-28 17:05:00,28.1,17.1,29.38,North,0,0.0,0.0,63,0.00,,,0.00,WUHU216HW,2013-03-01 02:05:00,
2013-02-28 17:10:00,27.7,16.7,29.38,North,0,0.0,0.0,63,0.00,,,0.00,WUHU216HW,2013-03-01 02:10:00,
2013-02-28 17:15:00,27.7,16.4,29.38,North,0,0.0,0.0,62,0.00,,,0.00,WUHU216HW,2013-03-01 02:15:00,
2013-02-28 17:20:00,27.2,16.2,29.38,North,0,0.0,0.0,63,0.00,,,0.00,WUHU216HW,2013-03-01 02:20:00,
2013-02-28 17:25:00,27.0,16.0,29.38,North,0,0.0,0.0,63,0.00,,,0.00,WUHU216HW,2013-03-01 02:25:00,
2013-02-28 17:30:00,26.8,16.2,29.38,North,0,0.0,0.0,64,0.00,,,0.00,WUHU216HW,2013-03-01 02:30:00,
2013-02-28 17:35:00,26.5,16.2,29.39,North,0,0.0,0.0,65,0.00,,,0.00,WUHU216HW,2013-03-01 02:35:00,
2013-02-28 17:40:00,26.3,16.0,29.39,North,0,0.0,0.0,65,0.00,,,0.00,WUHU216HW,2013-03-01 02:40:00,
2013-02-28 17:45:00,25.9,15.7,29.39,North,0,0.0,0.0,65,0.00,,,0.00,WUHU216HW,2013-03-01 02:45:00,
2013-02-28 17:50:00,25.6,15.4,29.39,North,0,0.0,0.0,65,0.00,,,0.00,WUHU216HW,2013-03-01 02:50:00,
2013-02-28 17:55:00,25.2,15.0,29.39,North,0,0.0,0.0,65,0.00,,,0.00,WUHU216HW,2013-03-01 02:55:00,
2013-02-28 18:00:00,24.8,14.7,29.39,North,0,0.0,0.0,65,0.00,,,0.00,WUHU216HW,2013-03-01 03:00:00,
2013-02-28 18:05:00,24.1,14.3,29.39,North,0,0.0,0.0,66,0.00,,,0.00,WUHU216HW,2013-03-01 03:05:00,
2013-02-28 18:10:00,24.1,14.3,29.39,North,0,0.0,0.0,66,0.00,,,0.00,WUHU216HW,2013-03-01 03:10:00,
2013-02-28 18:15:00,23.8,14.1,29.39,North,0,0.0,0.0,66,0.00,,,0.00,WUHU216HW,2013-03-01 03:15:00,
2013-02-28 18:20:00,23.6,14.2,29.40,North,0,0.0,0.0,67,0.00,,,0.00,WUHU216HW,2013-03-01 03:20:00,
2013-02-28 18:25:00,23.4,14.1,29.40,North,0,0.0,0.0,67,0.00,,,0.00,WUHU216HW,2013-03-01 03:25:00,
2013-02-28 18:30:00,23.4,14.4,29.40,North,0,0.0,0.0,68,0.00,,,0.00,WUHU216HW,2013-03-01 03:30:00,
2013-02-28 18:35:00,23.0,14.0,29.40,North,0,0.0,0.0,68,0.00,,,0.00,WUHU216HW,2013-03-01 03:35:00,
2013-02-28 18:40:00,22.7,13.7,29.40,North,0,0.0,0.0,68,0.00,,,0.00,WUHU216HW,2013-03-01 03:40:00,
2013-02-28 18:45:00,22.3,13.3,29.40,North,0,0.0,0.0,68,0.00,,,0.00,WUHU216HW,2013-03-01 03:45:00,
2013-02-28 18:50:00,22.0,13.0,29.41,North,0,0.0,0.0,68,0.00,,,0.00,WUHU216HW,2013-03-01 03:50:00,
2013-02-28 18:55:00,22.0,13.0,29.41,North,0,0.0,0.0,68,0.00,,,0.00,WUHU216HW,2013-03-01 03:55:00,
2013-02-28 19:00:00,21.6,13.0,29.41,North,0,0.0,0.0,69,0.00,,,0.00,WUHU216HW,2013-03-01 04:00:00,
2013-02-28 19:05:00,21.2,12.6,29.41,North,0,0.0,0.0,69,0.00,,,0.00,WUHU216HW,2013-03-01 04:05:00,
2013-02-28 19:10:00,21.1,12.4,29.41,North,0,0.0,0.0,69,0.00,,,0.00,WUHU216HW,2013-03-01 04:10:00,
2013-02-28 19:15:00,20.7,12.1,29.41,North,0,0.0,0.0,69,0.00,,,0.00,WUHU216HW,2013-03-01 04:15:00,
2013-02-28 19:20:00,20.3,11.7,29.41,North,0,0.0,0.0,69,0.00,,,0.00,WUHU216HW,2013-03-01 04:20:00,
2013-02-28 19:25:00,20.0,12.0,29.41,North,0,0.0,0.0,71,0.00,,,0.00,WUHU216HW,2013-03-01 04:25:00,
2013-02-28 19:30:00,20.0,12.0,29.41,North,0,0.0,0.0,71,0.00,,,0.00,WUHU216HW,2013-03-01 04:30:00,
2013-02-28 19:35:00,19.8,12.2,29.41,North,0,0.0,0.0,72,0.00,,,0.00,WUHU216HW,2013-03-01 04:35:00,
2013-02-28 19:40:00,19.4,11.8,29.41,North,0,0.0,0.0,72,0.00,,,0.00,WUHU216HW,2013-03-01 04:40:00,
2013-02-28 19:45:00,19.1,11.4,29.41,North,0,0.0,0.0,72,0.00,,,0.00,WUHU216HW,2013-03-01 04:45:00,
2013-02-28 19:50:00,18.7,11.4,29.41,North,0,0.0,0.0,73,0.00,,,0.00,WUHU216HW,2013-03-01 04:50:00,
2013-02-28 19:55:00,18.4,11.1,29.41,North,0,0.0,0.0,73,0.00,,,0.00,WUHU216HW,2013-03-01 04:55:00,
2013-02-28 20:00:00,18.0,11.6,29.41,North,0,0.0,0.0,76,0.00,,,0.00,WUHU216HW,2013-03-01 05:00:00,
2013-02-28 20:05:00,17.6,10.7,29.41,North,0,0.0,0.0,74,0.00,,,0.00,WUHU216HW,2013-03-01 05:05:00,
2013-02-28 20:07:00,17.5,10.5,29.41,North,0,0.0,0.0,74,0.00,,,0.00,WUHU216HW,2013-03-01 05:07:00,
2013-02-28 20:12:00,17.3,10.6,29.42,North,0,0.0,0.0,75,0.00,,,0.00,WUHU216HW,2013-03-01 05:12:00,
2013-02-28 20:17:00,16.9,10.9,29.42,North,0,0.0,0.0,77,0.00,,,0.00,WUHU216HW,2013-03-01 05:17:00,
2013-02-28 20:22:00,16.7,10.7,29.42,North,0,0.0,0.0,77,0.00,,,0.00,WUHU216HW,2013-03-01 05:22:00,
2013-02-28 20:27:00,16.6,10.5,29.42,North,0,0.0,0.0,77,0.00,,,0.00,WUHU216HW,2013-03-01 05:27:00,
2013-02-28 20:32:00,16.2,9.9,29.43,North,0,0.4,0.4,76,0.00,,,0.00,WUHU216HW,2013-03-01 05:32:00,
2013-02-28 20:37:00,16.0,9.7,29.43,North,0,0.0,0.4,76,0.00,,,0.00,WUHU216HW,2013-03-01 05:37:00,
2013-02-28 20:42:00,15.8,9.9,29.43,North,0,0.0,0.0,77,0.00,,,0.00,WUHU216HW,2013-03-01 05:42:00,
2013-02-28 20:47:00,15.7,9.7,29.43,North,0,0.0,0.2,77,0.00,,,0.00,WUHU216HW,2013-03-01 05:47:00,
2013-02-28 20:52:00,15.5,9.3,29.44,North,0,0.0,0.2,76,0.00,,,0.00,WUHU216HW,2013-03-01 05:52:00,
2013-02-28 20:57:00,15.3,9.1,29.44,North,0,0.0,0.0,76,0.00,,,0.00,WUHU216HW,2013-03-01 05:57:00,
2013-02-28 21:02:00,15.1,8.9,29.44,North,0,0.0,0.0,76,0.00,,,0.00,WUHU216HW,2013-03-01 06:02:00,
2013-02-28 21:07:00,14.9,8.7,29.44,North,0,0.0,0.0,76,0.00,,,0.00,WUHU216HW,2013-03-01 06:07:00,
2013-02-28 21:12:00,14.8,8.6,29.44,North,0,0.0,0.0,76,0.00,,,0.00,WUHU216HW,2013-03-01 06:12:00,
2013-02-28 21:17:00,14.8,8.6,29.44,North,0,0.0,0.0,76,0.00,,,0.00,WUHU216HW,2013-03-01 06:17:00,
2013-02-28 21:22:00,14.8,8.6,29.44,North,0,0.0,0.2,76,0.00,,,0.00,WUHU216HW,2013-03-01 06:22:00,
2013-02-28 21:27:00,14.8,8.6,29.44,North,0,0.0,0.2,76,0.00,,,0.00,WUHU216HW,2013-03-01 06:27:00,
2013-02-28 21:32:00,14.4,8.2,29.44,North,0,0.0,0.0,76,0.00,,,0.00,WUHU216HW,2013-03-01 06:32:00,
2013-02-28 21:37:00,14.2,8.3,29.44,North,0,0.0,0.0,77,0.00,,,0.00,WUHU216HW,2013-03-01 06:37:00,
2013-02-28 21:42:00,14.0,7.8,29.45,North,0,0.0,0.0,76,0.00,,,0.00,WUHU216HW,2013-03-01 06:42:00,
2013-02-28 21:47:00,13.9,7.7,29.45,North,0,0.0,0.0,76,0.00,,,0.00,WUHU216HW,2013-03-01 06:47:00,
2013-02-28 21:52:00,13.5,7.3,29.45,North,0,0.0,0.0,76,0.00,,,0.00,WUHU216HW,2013-03-01 06:52:00,
2013-02-28 21:57:00,13.3,7.1,29.46,North,0,0.0,0.0,76,0.00,,,0.00,WUHU216HW,2013-03-01 06:57:00,
2013-02-28 22:02:00,13.1,6.9,29.46,North,0,0.0,0.0,76,0.00,,,0.00,WUHU216HW,2013-03-01 07:02:00,
2013-02-28 22:07:00,12.8,6.6,29.46,North,0,0.0,0.0,76,0.00,,,0.00,WUHU216HW,2013-03-01 07:07:00,
2013-02-28 22:12:00,12.4,6.5,29.46,North,0,0.0,0.0,77,0.00,,,0.00,WUHU216HW,2013-03-01 07:12:00,
2013-02-28 22:17:00,12.2,6.3,29.46,North,0,0.0,0.0,77,0.00,,,0.00,WUHU216HW,2013-03-01 07:17:00,
2013-02-28 22:22:00,12.1,6.1,29.46,North,0,0.0,0.0,77,0.00,,,0.00,WUHU216HW,2013-03-01 07:22:00,
2013-02-28 22:27:00,11.9,6.6,29.46,North,0,0.0,0.0,79,0.00,,,0.00,WUHU216HW,2013-03-01 07:27:00,
2013-02-28 22:32:00,11.9,6.3,29.46,North,0,0.0,0.0,78,0.00,,,0.00,WUHU216HW,2013-03-01 07:32:00,
2013-02-28 22:37:00,11.7,6.1,29.46,North,0,0.0,0.0,78,0.00,,,0.00,WUHU216HW,2013-03-01 07:37:00,
2013-02-28 22:42:00,11.5,6.2,29.47,North,0,0.0,0.0,79,0.00,,,0.00,WUHU216HW,2013-03-01 07:42:00,
2013-02-28 22:47:00,11.3,5.8,29.47,North,0,0.0,0.0,78,0.00,,,0.00,WUHU216HW,2013-03-01 07:47:00,
2013-02-28 22:52:00,11.2,5.6,29.47,North,0,0.0,0.0,78,0.00,,,0.00,WUHU216HW,2013-03-01 07:52:00,
2013-02-28 22:57:00,11.2,5.9,29.48,North,0,0.0,0.0,79,0.00,,,0.00,WUHU216HW,2013-03-01 07:57:00,
2013-02-28 23:02:00,11.0,5.4,29.48,North,0,0.0,0.0,78,0.00,,,0.00,WUHU216HW,2013-03-01 08:02:00,
2013-02-28 23:07:00,10.8,5.5,29.48,North,0,0.0,0.0,79,0.00,,,0.00,WUHU216HW,2013-03-01 08:07:00,
2013-02-28 23:12:00,10.6,5.3,29.48,North,0,0.0,0.0,79,0.00,,,0.00,WUHU216HW,2013-03-01 08:12:00,
2013-02-28 23:17:00,10.6,5.3,29.48,North,0,0.0,0.0,79,0.00,,,0.00,WUHU216HW,2013-03-01 08:17:00,
2013-02-28 23:22:00,10.4,5.1,29.48,North,0,0.0,0.0,79,0.00,,,0.00,WUHU216HW,2013-03-01 08:22:00,
2013-02-28 23:27:00,10.4,5.1,29.48,North,0,0.0,0.0,79,0.00,,,0.00,WUHU216HW,2013-03-01 08:27:00,
2013-02-28 23:32:00,10.4,5.1,29.49,North,0,0.0,0.0,79,0.00,,,0.00,WUHU216HW,2013-03-01 08:32:00,
2013-02-28 23:37:00,10.4,5.1,29.49,North,0,0.0,0.0,79,0.00,,,0.00,WUHU216HW,2013-03-01 08:37:00,
2013-02-28 23:42:00,10.4,4.9,29.49,North,0,0.0,0.0,78,0.00,,,0.00,WUHU216HW,2013-03-01 08:42:00,
2013-02-28 23:47:00,10.3,4.7,29.49,North,0,0.0,0.0,78,0.00,,,0.00,WUHU216HW,2013-03-01 08:47:00,
2013-02-28 23:52:00,9.9,4.3,29.49,North,0,0.0,0.0,78,0.00,,,0.00,WUHU216HW,2013-03-01 08:52:00,
2013-02-28 23:57:00,9.7,4.5,29.49,North,0,0.0,0.0,79,0.00,,,0.00,WUHU216HW,2013-03-01 08:57:00,